Time;durP1;ratioP1;P1;durP2;ratioP2;P2;SDS_P1;SDS_P2;PMS_P1;PMS_P2;Temp;Humidity;BMP_temperature;BMP_pressure;BME280_temperature;BME280_humidity;BME280_pressure;Samples;Min_cycle;Max_cycle;Signal;HPM_P1;HPM_P2
2023/12/24 00:01:57;;;;;;;0.90;0.90;;;9.90;99.90;;;;;;5096534;28;20513;-74
2023/12/24 00:04:22;;;;;;;0.80;0.80;;;8.80;99.90;;;;;;5095149;28;20050;-73
2023/12/24 00:06:48;;;;;;;0.80;0.80;;;8.90;99.90;;;;;;5096874;28;20044;-74
2023/12/24 00:09:14;;;;;;;0.90;0.90;;;8.90;99.90;;;;;;5096478;28;20372;-74
2023/12/24 00:11:39;;;;;;;0.80;0.80;;;8.80;99.90;;;;;;5096496;28;20036;-74
2023/12/24 00:14:05;;;;;;;0.80;0.80;;;8.80;99.90;;;;;;5096476;28;20043;-77
2023/12/24 00:16:31;;;;;;;0.90;0.90;;;8.90;99.90;;;;;;5096024;28;20490;-73
2023/12/24 00:18:57;;;;;;;0.82;0.82;;;8.80;99.90;;;;;;5096015;28;20075;-74
2023/12/24 00:21:23;;;;;;;0.90;0.90;;;8.80;99.90;;;;;;5096266;28;20388;-73
2023/12/24 00:23:49;;;;;;;0.90;0.90;;;8.80;99.90;;;;;;5096227;28;20153;-77
2023/12/24 00:26:16;;;;;;;1.55;1.40;;;8.80;99.90;;;;;;5096185;28;20048;-75
2023/12/24 00:28:41;;;;;;;0.80;0.80;;;8.80;99.90;;;;;;5095850;28;20040;-74
2023/12/24 00:31:07;;;;;;;0.90;0.90;;;8.80;99.90;;;;;;5095789;28;20414;-74
2023/12/24 00:33:32;;;;;;;0.90;0.90;;;9.50;99.90;;;;;;5096234;28;20032;-76
2023/12/24 00:35:58;;;;;;;0.90;0.90;;;8.80;99.90;;;;;;5095913;28;20100;-77
2023/12/24 00:38:24;;;;;;;0.80;0.80;;;8.80;99.90;;;;;;5095549;28;20526;-74
2023/12/24 00:40:49;;;;;;;0.90;0.90;;;8.80;99.90;;;;;;5095901;28;20095;-75
2023/12/24 00:43:15;;;;;;;0.80;0.80;;;8.90;99.90;;;;;;5095878;28;20039;-73
2023/12/24 00:45:40;;;;;;;0.90;0.90;;;8.50;99.90;;;;;;5095524;28;20038;-77
2023/12/24 00:48:07;;;;;;;0.88;0.88;;;8.80;99.90;;;;;;5095380;28;20082;-74
2023/12/24 00:50:33;;;;;;;0.90;0.90;;;8.80;99.90;;;;;;5095974;28;20429;-74
2023/12/24 00:52:58;;;;;;;0.90;0.90;;;9.30;99.90;;;;;;5095656;28;20036;-76
2023/12/24 00:55:24;;;;;;;0.90;0.90;;;8.80;99.90;;;;;;5095666;28;20058;-75
2023/12/24 00:57:49;;;;;;;0.80;0.80;;;9.50;99.90;;;;;;5095521;28;20372;-76
2023/12/24 01:00:15;;;;;;;0.90;0.90;;;8.80;99.90;;;;;;5095570;28;20125;-75
2023/12/24 01:02:41;;;;;;;0.90;0.90;;;8.80;99.90;;;;;;5095336;28;20447;-76
2023/12/24 01:05:07;;;;;;;1.10;1.00;;;8.80;99.90;;;;;;5095805;28;20460;-77
2023/12/24 01:07:33;;;;;;;1.10;1.00;;;8.80;99.90;;;;;;5095641;28;20039;-76
2023/12/24 01:09:58;;;;;;;0.82;0.82;;;8.80;99.90;;;;;;5095559;28;20043;-76
2023/12/24 01:12:24;;;;;;;0.82;0.82;;;8.80;99.90;;;;;;5095439;28;20156;-74
2023/12/24 01:14:49;;;;;;;0.90;0.90;;;8.80;99.90;;;;;;5095263;28;20082;-74
2023/12/24 01:17:15;;;;;;;0.90;0.90;;;8.80;99.90;;;;;;5094799;28;20044;-74
2023/12/24 01:19:41;;;;;;;0.80;0.80;;;9.10;99.90;;;;;;5095417;28;20395;-76
2023/12/24 01:22:06;;;;;;;1.00;1.00;;;8.80;99.90;;;;;;5095459;28;20036;-76
2023/12/24 01:24:32;;;;;;;0.80;0.80;;;9.70;99.90;;;;;;5095092;28;20063;-76
2023/12/24 01:26:58;;;;;;;0.90;0.90;;;9.40;99.90;;;;;;5095104;28;20036;-73
2023/12/24 01:29:23;;;;;;;1.02;0.93;;;8.80;99.90;;;;;;5094883;28;20043;-73
2023/12/24 01:31:49;;;;;;;0.80;0.80;;;8.90;99.90;;;;;;5094832;28;20058;-75
2023/12/24 01:34:14;;;;;;;1.00;0.90;;;8.80;99.90;;;;;;5094927;28;20066;-74
2023/12/24 01:36:40;;;;;;;0.90;0.90;;;8.80;99.90;;;;;;5094844;28;20035;-74
2023/12/24 01:39:10;;;;;;;1.65;1.55;;;8.80;99.90;;;;;;5093672;28;20057;-75
2023/12/24 01:41:35;;;;;;;2.80;1.40;;;8.80;99.90;;;;;;5094706;28;20116;-76
2023/12/24 01:44:01;;;;;;;2.08;1.73;;;9.30;99.90;;;;;;5094651;28;20094;-76
2023/12/24 01:46:28;;;;;;;0.80;0.80;;;8.90;99.90;;;;;;5094609;28;20118;-75
2023/12/24 01:48:54;;;;;;;1.10;1.00;;;8.90;99.90;;;;;;5094936;28;20360;-74
2023/12/24 01:51:21;;;;;;;1.20;1.10;;;8.90;99.90;;;;;;5094590;28;20148;-75
2023/12/24 01:53:50;;;;;;;0.80;0.80;;;8.90;99.90;;;;;;5094932;28;20044;-75
2023/12/24 01:56:19;;;;;;;0.90;0.90;;;9.60;99.90;;;;;;5094383;28;20046;-76
2023/12/24 01:58:45;;;;;;;0.80;0.80;;;8.90;99.90;;;;;;5093709;28;20075;-73
2023/12/24 02:01:11;;;;;;;0.90;0.90;;;8.90;99.90;;;;;;5094315;28;20083;-75
2023/12/24 02:03:36;;;;;;;0.90;0.90;;;8.90;99.90;;;;;;5094068;28;20043;-75
2023/12/24 02:06:05;;;;;;;0.80;0.80;;;8.90;99.90;;;;;;5094414;28;20040;-73
2023/12/24 02:08:31;;;;;;;3.13;2.85;;;8.90;99.90;;;;;;5094200;28;20040;-74
2023/12/24 02:10:58;;;;;;;10.30;1.42;;;9.70;99.90;;;;;;5094407;28;20046;-76
2023/12/24 02:13:24;;;;;;;;;;;8.90;99.90;;;;;;5094581;28;20028;-72
2023/12/24 02:15:54;;;;;;;0.88;0.88;;;8.90;99.90;;;;;;5094017;28;19916;-75
2023/12/24 02:18:21;;;;;;;0.90;0.90;;;8.90;99.90;;;;;;5092850;28;20052;-76
2023/12/24 02:20:47;;;;;;;0.90;0.90;;;9.00;99.90;;;;;;5093851;28;20472;-75
2023/12/24 02:23:13;;;;;;;0.80;0.80;;;8.90;99.90;;;;;;5094471;28;20055;-74
2023/12/24 02:25:38;;;;;;;0.90;0.90;;;8.90;99.90;;;;;;5093962;28;20282;-75
2023/12/24 02:28:23;;;;;;;0.88;0.88;;;8.90;99.90;;;;;;5093954;28;20478;-75
2023/12/24 02:30:52;;;;;;;0.80;0.80;;;8.90;99.90;;;;;;5093973;28;20036;-75
2023/12/24 02:33:20;;;;;;;1.05;1.00;;;9.00;99.90;;;;;;5093917;28;20043;-75
2023/12/24 02:35:47;;;;;;;0.90;0.90;;;8.80;99.90;;;;;;5092880;28;20119;-74
2023/12/24 02:38:13;;;;;;;;;;;8.90;99.90;;;;;;5094259;28;20116;-75
2023/12/24 02:40:38;;;;;;;0.90;0.90;;;8.90;99.90;;;;;;5093824;28;20348;-74
2023/12/24 02:43:04;;;;;;;2.95;2.65;;;8.80;99.90;;;;;;5093807;28;20178;-74
2023/12/24 02:45:30;;;;;;;0.80;0.80;;;8.80;99.90;;;;;;5093831;28;20032;-75
2023/12/24 02:47:55;;;;;;;6.13;3.70;;;8.90;99.90;;;;;;5093676;28;20044;-75
2023/12/24 02:50:21;;;;;;;0.80;0.80;;;8.90;99.90;;;;;;5093852;28;20043;-76
2023/12/24 02:52:46;;;;;;;0.90;0.90;;;8.80;99.90;;;;;;5093643;28;20043;-76
2023/12/24 02:55:12;;;;;;;0.90;0.90;;;8.80;99.90;;;;;;5093667;28;20048;-75
2023/12/24 02:57:38;;;;;;;1.00;0.90;;;8.80;99.90;;;;;;5093570;28;20126;-76
2023/12/24 03:00:05;;;;;;;0.90;0.90;;;9.10;99.90;;;;;;5094229;28;20439;-76
2023/12/24 03:02:32;;;;;;;1.63;1.52;;;8.90;99.90;;;;;;5093575;28;20046;-77
2023/12/24 03:04:58;;;;;;;0.90;0.90;;;8.90;99.90;;;;;;5093541;28;20069;-76
2023/12/24 03:07:23;;;;;;;0.85;0.85;;;8.90;99.90;;;;;;5093658;28;20044;-73
2023/12/24 03:09:49;;;;;;;0.90;0.90;;;8.90;99.90;;;;;;5094942;28;20040;-75
2023/12/24 03:12:17;;;;;;;0.90;0.90;;;8.90;99.90;;;;;;5097758;28;20043;-77
2023/12/24 03:14:42;;;;;;;1.98;1.88;;;8.90;99.90;;;;;;5097636;28;20078;-74
2023/12/24 03:17:08;;;;;;;0.80;0.80;;;9.40;99.90;;;;;;5097559;28;20076;-78
2023/12/24 03:19:34;;;;;;;0.82;0.82;;;9.30;99.90;;;;;;5097228;28;20052;-74
2023/12/24 03:22:00;;;;;;;0.82;0.82;;;9.00;99.90;;;;;;5097411;28;20131;-77
2023/12/24 03:24:26;;;;;;;0.80;0.80;;;9.00;99.90;;;;;;5096630;28;20444;-75
2023/12/24 03:26:52;;;;;;;0.90;0.90;;;9.30;99.90;;;;;;5096432;28;20093;-75
2023/12/24 03:29:17;;;;;;;0.95;0.90;;;8.90;99.90;;;;;;5097291;28;20580;-74
2023/12/24 03:31:43;;;;;;;0.80;0.80;;;8.90;99.90;;;;;;5097018;28;20036;-75
2023/12/24 03:34:09;;;;;;;0.90;0.90;;;9.00;99.90;;;;;;5097481;28;20078;-76
2023/12/24 03:36:35;;;;;;;0.90;0.90;;;8.90;99.90;;;;;;5097106;28;20036;-76
2023/12/24 03:39:00;;;;;;;0.88;0.88;;;8.90;99.90;;;;;;5097151;28;20043;-75
2023/12/24 03:41:26;;;;;;;0.90;0.90;;;8.90;99.90;;;;;;5096977;28;20123;-74
2023/12/24 03:43:52;;;;;;;1.42;1.33;;;8.90;99.90;;;;;;5097514;28;20478;-75
2023/12/24 03:46:21;;;;;;;0.90;0.90;;;8.90;99.90;;;;;;5096658;28;20043;-75
2023/12/24 03:48:46;;;;;;;0.90;0.90;;;8.90;99.90;;;;;;5097062;28;20036;-74
2023/12/24 03:51:12;;;;;;;0.90;0.90;;;9.70;99.90;;;;;;5096916;28;20032;-76
2023/12/24 03:53:38;;;;;;;0.85;0.85;;;9.00;99.90;;;;;;5096936;28;20093;-75
2023/12/24 03:56:04;;;;;;;0.90;0.90;;;8.90;99.90;;;;;;5096765;28;20036;-76
2023/12/24 03:58:30;;;;;;;0.90;0.90;;;9.00;99.90;;;;;;5096774;28;20119;-74
2023/12/24 04:00:56;;;;;;;0.80;0.80;;;9.10;99.90;;;;;;5096891;28;20392;-73
2023/12/24 04:03:21;;;;;;;1.15;1.10;;;9.40;99.90;;;;;;5096724;28;20072;-73
2023/12/24 04:05:47;;;;;;;0.80;0.80;;;9.00;99.90;;;;;;5096757;28;20032;-77
2023/12/24 04:08:15;;;;;;;0.80;0.80;;;9.00;99.90;;;;;;5096575;28;20044;-76
2023/12/24 04:10:41;;;;;;;1.35;1.25;;;9.10;99.90;;;;;;5096450;28;20039;-73
2023/12/24 04:13:07;;;;;;;0.80;0.80;;;9.00;99.90;;;;;;5096435;28;20046;-73
2023/12/24 04:15:33;;;;;;;0.80;0.80;;;9.00;99.90;;;;;;5096753;28;20044;-74
2023/12/24 04:17:59;;;;;;;0.80;0.80;;;9.00;99.90;;;;;;5096065;28;20040;-75
2023/12/24 04:20:25;;;;;;;0.80;0.80;;;9.00;99.90;;;;;;5095807;28;20499;-75
2023/12/24 04:22:51;;;;;;;0.80;0.80;;;9.90;99.90;;;;;;5095552;28;20040;-78
2023/12/24 04:25:16;;;;;;;0.77;0.77;;;9.00;99.90;;;;;;5096225;28;20513;-74
2023/12/24 04:27:42;;;;;;;0.80;0.80;;;9.10;99.90;;;;;;5095897;28;20059;-76
2023/12/24 04:30:08;;;;;;;0.80;0.80;;;9.60;99.90;;;;;;5096105;28;20468;-76
2023/12/24 04:32:34;;;;;;;0.80;0.80;;;9.10;99.90;;;;;;5094774;28;20044;-73
2023/12/24 04:35:00;;;;;;;0.80;0.80;;;9.10;99.90;;;;;;5092915;28;20289;-75
2023/12/24 04:37:25;;;;;;;0.80;0.80;;;9.10;99.90;;;;;;5093937;28;20032;-75
2023/12/24 04:39:51;;;;;;;0.80;0.80;;;9.20;99.90;;;;;;5093553;28;20419;-73
2023/12/24 04:42:17;;;;;;;0.80;0.80;;;9.30;99.90;;;;;;5093748;28;20036;-75
2023/12/24 04:44:42;;;;;;;0.80;0.80;;;9.10;99.90;;;;;;5093818;28;20071;-73
2023/12/24 04:47:08;;;;;;;0.80;0.80;;;9.10;99.90;;;;;;5094539;28;20044;-75
2023/12/24 04:49:34;;;;;;;1.10;1.00;;;9.50;99.90;;;;;;5095743;28;20036;-75
2023/12/24 04:51:59;;;;;;;0.80;0.80;;;9.10;99.90;;;;;;5095733;28;20036;-74
2023/12/24 04:54:26;;;;;;;0.80;0.80;;;9.10;99.90;;;;;;5095710;28;20080;-77
2023/12/24 04:56:52;;;;;;;0.80;0.80;;;9.10;99.90;;;;;;5095579;28;20419;-75
2023/12/24 04:59:17;;;;;;;0.80;0.80;;;9.20;99.90;;;;;;5095454;28;20032;-73
2023/12/24 05:01:43;;;;;;;0.80;0.80;;;9.20;99.90;;;;;;5095563;28;20123;-73
2023/12/24 05:04:08;;;;;;;0.88;0.88;;;9.20;99.90;;;;;;5095717;28;20086;-73
2023/12/24 05:06:35;;;;;;;0.80;0.80;;;9.20;99.90;;;;;;5095475;28;20062;-77
2023/12/24 05:09:00;;;;;;;0.80;0.80;;;9.20;99.90;;;;;;5095335;28;20040;-73
2023/12/24 05:11:26;;;;;;;0.80;0.80;;;9.30;99.90;;;;;;5095373;28;20365;-75
2023/12/24 05:13:51;;;;;;;0.80;0.80;;;9.20;99.90;;;;;;5095349;28;20114;-75
2023/12/24 05:16:17;;;;;;;0.80;0.80;;;9.20;99.90;;;;;;5095281;28;20057;-75
2023/12/24 05:18:42;;;;;;;0.80;0.80;;;9.20;99.90;;;;;;5095116;28;20486;-77
2023/12/24 05:21:08;;;;;;;0.90;0.90;;;10.00;99.90;;;;;;5095147;28;20044;-75
2023/12/24 05:23:34;;;;;;;0.80;0.80;;;9.30;99.90;;;;;;5095114;28;20468;-76
2023/12/24 05:26:00;;;;;;;0.80;0.80;;;9.80;99.90;;;;;;5094735;28;20036;-74
2023/12/24 05:28:25;;;;;;;0.80;0.80;;;9.30;99.90;;;;;;5095402;28;20165;-75
2023/12/24 05:30:51;;;;;;;0.70;0.70;;;9.30;99.90;;;;;;5094973;28;20032;-75
2023/12/24 05:33:16;;;;;;;0.80;0.80;;;9.30;99.90;;;;;;5094767;28;20072;-76
2023/12/24 05:35:42;;;;;;;0.80;0.80;;;9.30;99.90;;;;;;5094926;28;20036;-77
2023/12/24 05:38:08;;;;;;;0.80;0.80;;;9.30;99.90;;;;;;5094998;28;20050;-74
2023/12/24 05:40:33;;;;;;;0.80;0.80;;;9.30;99.90;;;;;;5094767;28;20344;-74
2023/12/24 05:42:59;;;;;;;0.80;0.80;;;9.40;99.90;;;;;;5094721;28;20131;-76
2023/12/24 05:45:24;;;;;;;0.80;0.80;;;9.40;99.90;;;;;;5095150;28;20066;-75
2023/12/24 05:47:50;;;;;;;0.85;0.85;;;9.40;99.90;;;;;;5094694;28;20531;-75
2023/12/24 05:50:15;;;;;;;0.80;0.80;;;9.40;99.90;;;;;;5094582;28;20468;-74
2023/12/24 05:52:41;;;;;;;0.80;0.80;;;9.40;99.90;;;;;;5094561;28;20031;-77
2023/12/24 05:55:08;;;;;;;0.80;0.80;;;9.40;99.90;;;;;;5094482;28;20120;-75
2023/12/24 05:57:34;;;;;;;0.80;0.80;;;9.40;99.90;;;;;;5094312;28;20123;-75
2023/12/24 06:00:00;;;;;;;0.80;0.80;;;9.40;99.90;;;;;;5094393;28;20086;-74
2023/12/24 06:02:25;;;;;;;0.80;0.80;;;9.40;99.90;;;;;;5094810;28;20411;-76
2023/12/24 06:04:51;;;;;;;0.80;0.80;;;9.50;99.90;;;;;;5094390;28;20036;-74
2023/12/24 06:07:17;;;;;;;0.80;0.80;;;9.60;99.90;;;;;;5094637;28;20456;-75
2023/12/24 06:09:42;;;;;;;0.80;0.80;;;9.50;99.90;;;;;;5094207;28;20456;-76
2023/12/24 06:12:08;;;;;;;0.80;0.80;;;9.60;99.90;;;;;;5093930;28;20051;-74
2023/12/24 06:14:34;;;;;;;0.77;0.77;;;9.50;99.90;;;;;;5093185;28;20487;-73
2023/12/24 06:16:59;;;;;;;0.90;0.90;;;10.10;99.90;;;;;;5094543;28;20035;-75
2023/12/24 06:19:25;;;;;;;0.80;0.80;;;9.50;99.90;;;;;;5093475;28;20388;-76
2023/12/24 06:21:51;;;;;;;0.77;0.77;;;9.60;99.90;;;;;;5094330;28;20081;-74
2023/12/24 06:24:21;;;;;;;0.80;0.80;;;9.60;99.90;;;;;;5094135;28;20039;-77
2023/12/24 06:26:51;;;;;;;0.80;0.80;;;10.20;99.90;;;;;;5094311;28;20053;-74
2023/12/24 06:29:17;;;;;;;0.80;0.80;;;9.60;99.90;;;;;;5093955;28;20134;-74
2023/12/24 06:31:43;;;;;;;0.80;0.80;;;9.60;99.90;;;;;;5094006;28;20076;-76
2023/12/24 06:34:09;;;;;;;0.60;0.60;;;9.60;99.90;;;;;;5093988;28;20181;-74
2023/12/24 06:36:34;;;;;;;0.70;0.70;;;9.60;99.90;;;;;;5094220;28;20380;-77
2023/12/24 06:39:00;;;;;;;0.70;0.70;;;9.60;99.90;;;;;;5093963;28;20040;-75
2023/12/24 06:41:26;;;;;;;0.68;0.68;;;9.60;99.90;;;;;;5093872;28;20043;-74
2023/12/24 06:43:52;;;;;;;0.60;0.60;;;9.60;99.90;;;;;;5093448;28;20044;-73
2023/12/24 06:46:17;;;;;;;0.60;0.60;;;9.60;99.90;;;;;;5093684;28;20377;-74
2023/12/24 06:48:43;;;;;;;0.80;0.80;;;9.70;99.90;;;;;;5093833;28;20039;-75
2023/12/24 06:51:09;;;;;;;0.80;0.80;;;9.80;99.90;;;;;;5076032;28;20456;-74
2023/12/24 06:53:35;;;;;;;0.75;0.75;;;9.70;99.90;;;;;;5093948;28;20115;-73
2023/12/24 06:56:01;;;;;;;0.90;0.90;;;9.70;99.90;;;;;;5093678;28;20105;-75
2023/12/24 06:58:26;;;;;;;0.80;0.80;;;9.70;99.90;;;;;;5093804;28;20079;-75
2023/12/24 07:00:52;;;;;;;1.20;1.10;;;9.70;99.90;;;;;;5093737;28;20051;-73
2023/12/24 07:03:17;;;;;;;0.85;0.85;;;9.80;99.90;;;;;;5094020;28;20048;-76
2023/12/24 07:05:43;;;;;;;0.88;0.88;;;11.00;99.90;;;;;;5093695;28;20040;-76
2023/12/24 07:08:09;;;;;;;0.90;0.90;;;10.10;99.90;;;;;;5093712;28;20044;-77
2023/12/24 07:10:36;;;;;;;0.80;0.80;;;10.20;99.90;;;;;;5093288;28;20047;-76
2023/12/24 07:13:01;;;;;;;0.80;0.80;;;9.80;99.90;;;;;;5094099;28;20032;-76
2023/12/24 07:15:27;;;;;;;0.90;0.90;;;9.90;99.90;;;;;;5093878;28;20526;-77
2023/12/24 07:17:52;;;;;;;0.80;0.80;;;9.90;99.90;;;;;;5093809;28;20094;-76
2023/12/24 07:20:18;;;;;;;0.90;0.90;;;9.90;99.90;;;;;;5093428;28;20048;-76
2023/12/24 07:22:44;;;;;;;0.80;0.80;;;9.90;99.90;;;;;;5093652;28;20127;-74
2023/12/24 07:25:10;;;;;;;0.90;0.90;;;10.00;99.90;;;;;;5093465;28;20044;-77
2023/12/24 07:27:36;;;;;;;0.90;0.90;;;9.90;99.90;;;;;;5093942;28;20123;-76
2023/12/24 07:30:02;;;;;;;0.90;0.90;;;10.00;99.90;;;;;;5093720;28;20540;-76
2023/12/24 07:32:27;;;;;;;0.90;0.90;;;10.00;99.90;;;;;;5092461;28;20372;-75
2023/12/24 07:34:55;;;;;;;0.80;0.80;;;10.00;99.90;;;;;;5093367;28;20131;-77
2023/12/24 07:37:21;;;;;;;0.80;0.80;;;10.00;99.90;;;;;;5093359;28;20040;-74
2023/12/24 07:39:46;;;;;;;0.85;0.85;;;10.00;99.90;;;;;;5093328;28;20085;-76
2023/12/24 07:42:12;;;;;;;0.80;0.80;;;10.00;99.90;;;;;;5093763;28;20044;-75
2023/12/24 07:44:37;;;;;;;0.80;0.80;;;10.10;99.90;;;;;;5093391;28;20349;-77
2023/12/24 07:47:03;;;;;;;0.80;0.80;;;10.10;99.90;;;;;;5093266;28;20461;-73
2023/12/24 07:49:29;;;;;;;0.80;0.80;;;10.00;99.90;;;;;;5093220;28;20047;-76
2023/12/24 07:51:54;;;;;;;0.90;0.90;;;10.80;99.90;;;;;;5093287;28;20123;-76
2023/12/24 07:54:20;;;;;;;0.80;0.80;;;10.30;99.90;;;;;;5092245;28;20055;-79
2023/12/24 07:56:46;;;;;;;1.63;1.27;;;10.10;99.90;;;;;;5094304;28;20440;-74
2023/12/24 07:59:11;;;;;;;0.80;0.80;;;10.10;99.90;;;;;;5097199;28;20055;-76
2023/12/24 08:01:40;;;;;;;0.80;0.80;;;10.20;99.90;;;;;;5096704;28;20054;-75
2023/12/24 08:04:05;;;;;;;0.80;0.80;;;10.20;99.90;;;;;;5096654;28;20040;-75
2023/12/24 08:06:31;;;;;;;0.80;0.80;;;10.20;99.90;;;;;;5096639;28;20038;-74
2023/12/24 08:08:57;;;;;;;0.80;0.80;;;10.20;99.90;;;;;;5096470;28;20482;-77
2023/12/24 08:11:23;;;;;;;1.00;1.00;;;10.20;99.90;;;;;;5097021;28;20048;-76
2023/12/24 08:13:49;;;;;;;0.80;0.80;;;10.90;99.90;;;;;;5096465;28;20468;-79
2023/12/24 08:16:14;;;;;;;0.90;0.90;;;10.20;99.90;;;;;;5096448;28;20127;-75
2023/12/24 08:18:40;;;;;;;1.38;1.27;;;10.30;99.90;;;;;;5096192;28;20088;-74
2023/12/24 08:21:07;;;;;;;0.80;0.80;;;10.20;99.90;;;;;;5096397;28;20503;-76
2023/12/24 08:23:33;;;;;;;0.80;0.80;;;10.80;99.90;;;;;;5096251;28;20120;-76
2023/12/24 08:25:59;;;;;;;0.80;0.80;;;10.30;99.90;;;;;;5096281;28;20119;-77
2023/12/24 08:28:24;;;;;;;0.88;0.88;;;11.10;99.90;;;;;;5096180;28;20077;-78
2023/12/24 08:30:50;;;;;;;1.10;1.00;;;10.30;99.90;;;;;;5096111;28;20048;-75
2023/12/24 08:33:15;;;;;;;0.80;0.80;;;10.30;99.90;;;;;;5095502;28;20043;-76
2023/12/24 08:35:41;;;;;;;0.80;0.80;;;10.30;99.90;;;;;;5094314;28;20043;-79
2023/12/24 08:38:06;;;;;;;0.80;0.80;;;10.30;99.90;;;;;;5094252;28;20126;-76
2023/12/24 08:40:32;;;;;;;0.80;0.80;;;10.30;99.90;;;;;;5094542;28;20032;-75
2023/12/24 08:42:58;;;;;;;1.25;1.00;;;10.40;99.90;;;;;;5095482;28;20044;-76
2023/12/24 08:45:23;;;;;;;0.90;0.90;;;10.40;99.90;;;;;;5095250;28;20097;-77
2023/12/24 08:47:49;;;;;;;1.63;1.45;;;10.40;99.90;;;;;;5095924;28;20040;-75
2023/12/24 08:50:15;;;;;;;0.90;0.90;;;10.30;99.90;;;;;;5095756;28;20452;-75
2023/12/24 08:52:41;;;;;;;0.80;0.80;;;10.40;99.90;;;;;;5095755;28;20044;-77
2023/12/24 08:55:07;;;;;;;0.80;0.80;;;10.40;99.90;;;;;;5095669;28;20046;-74
2023/12/24 08:57:33;;;;;;;0.80;0.80;;;10.40;99.90;;;;;;5095622;28;20072;-77
2023/12/24 08:59:58;;;;;;;0.80;0.80;;;11.00;99.90;;;;;;5095534;28;20048;-77
2023/12/24 09:02:24;;;;;;;0.85;0.85;;;10.40;99.90;;;;;;5095580;28;20051;-77
2023/12/24 09:04:49;;;;;;;0.88;0.88;;;10.40;99.90;;;;;;5095547;28;20356;-75
2023/12/24 09:07:17;;;;;;;1.35;1.25;;;10.40;99.90;;;;;;5095029;28;20062;-76
2023/12/24 09:09:43;;;;;;;0.77;0.77;;;10.70;99.90;;;;;;5095008;28;20086;-78
2023/12/24 09:12:08;;;;;;;0.80;0.80;;;10.40;99.90;;;;;;5096022;28;20036;-75
2023/12/24 09:14:34;;;;;;;0.70;0.70;;;10.50;99.90;;;;;;5095310;28;20513;-74
2023/12/24 09:17:00;;;;;;;0.80;0.80;;;10.50;99.90;;;;;;5095293;28;20102;-76
2023/12/24 09:19:25;;;;;;;0.90;0.90;;;10.50;99.90;;;;;;5095288;28;20058;-78
2023/12/24 09:21:51;;;;;;;0.80;0.80;;;10.50;99.90;;;;;;5095191;28;20087;-75
2023/12/24 09:24:16;;;;;;;6.25;1.73;;;10.60;99.90;;;;;;5095055;28;20468;-77
2023/12/24 09:26:42;;;;;;;2.47;1.20;;;10.50;99.90;;;;;;5095112;28;20108;-75
2023/12/24 09:29:10;;;;;;;0.77;0.77;;;10.50;99.90;;;;;;5095323;28;20061;-77
2023/12/24 09:31:36;;;;;;;0.70;0.70;;;10.50;99.90;;;;;;5094985;28;20079;-77
2023/12/24 09:34:01;;;;;;;0.80;0.80;;;10.60;99.90;;;;;;5095010;28;20055;-78
2023/12/24 09:36:27;;;;;;;0.70;0.70;;;10.60;99.90;;;;;;5094867;28;20044;-77
2023/12/24 09:38:53;;;;;;;4.85;3.22;;;10.60;99.90;;;;;;5094827;28;20097;-77
2023/12/24 09:41:19;;;;;;;1.00;0.90;;;10.60;99.90;;;;;;5095277;28;20043;-76
2023/12/24 09:43:45;;;;;;;0.80;0.80;;;10.60;99.90;;;;;;5094418;28;20037;-75
2023/12/24 09:46:11;;;;;;;0.75;0.75;;;10.80;99.90;;;;;;5094764;28;20051;-77
2023/12/24 09:48:36;;;;;;;1.55;1.45;;;10.70;99.90;;;;;;5094792;28;20364;-75
2023/12/24 09:51:02;;;;;;;0.80;0.80;;;11.40;99.90;;;;;;5094640;28;20046;-77
2023/12/24 09:53:29;;;;;;;0.70;0.70;;;10.70;99.90;;;;;;5094577;28;20046;-77
2023/12/24 09:55:58;;;;;;;0.80;0.80;;;10.70;99.90;;;;;;5094538;28;20426;-76
2023/12/24 09:58:24;;;;;;;0.80;0.80;;;10.70;99.90;;;;;;5094466;28;20050;-75
2023/12/24 10:00:49;;;;;;;0.80;0.80;;;10.70;99.90;;;;;;5094488;28;20036;-77
2023/12/24 10:03:15;;;;;;;0.70;0.70;;;10.70;99.90;;;;;;5093608;28;20044;-76
2023/12/24 10:06:02;;;;;;;0.77;0.77;;;10.70;99.90;;;;;;5094505;28;20368;-77
2023/12/24 10:08:28;;;;;;;0.73;0.73;;;10.70;99.90;;;;;;5092915;28;20368;-77
2023/12/24 10:10:53;;;;;;;0.80;0.80;;;10.80;99.90;;;;;;5094293;28;20072;-75
2023/12/24 10:13:20;;;;;;;0.90;0.90;;;10.80;99.90;;;;;;5094271;28;20490;-75
2023/12/24 10:15:46;;;;;;;1.15;1.05;;;10.80;99.90;;;;;;5094246;28;20040;-76
2023/12/24 10:18:19;;;;;;;5.20;1.65;;;10.80;99.90;;;;;;5094034;28;20491;-77
2023/12/24 10:20:46;;;;;;;0.77;0.77;;;10.80;99.90;;;;;;5093555;28;20046;-78
2023/12/24 10:23:12;;;;;;;;;;;10.80;99.90;;;;;;5093833;28;20401;-76
2023/12/24 10:25:37;;;;;;;0.80;0.80;;;11.00;99.90;;;;;;5094048;28;20016;-75
2023/12/24 10:28:07;;;;;;;0.80;0.80;;;10.80;99.90;;;;;;5094046;28;20040;-75
2023/12/24 10:30:33;;;;;;;0.70;0.70;;;10.90;99.90;;;;;;5093956;28;20119;-76
2023/12/24 10:33:12;;;;;;;0.70;0.70;;;10.80;99.90;;;;;;5093064;28;20127;-78
2023/12/24 10:35:38;;;;;;;0.80;0.80;;;11.30;99.90;;;;;;5094534;28;20093;-77
2023/12/24 10:38:15;;;;;;;0.80;0.80;;;10.90;99.90;;;;;;5093912;28;20048;-75
2023/12/24 10:40:42;;;;;;;0.77;0.77;;;10.90;99.90;;;;;;5093914;28;20040;-76
2023/12/24 10:43:07;;;;;;;1.40;1.00;;;11.40;99.90;;;;;;5094197;28;20765;-75
2023/12/24 10:45:33;;;;;;;0.80;0.80;;;11.00;99.90;;;;;;5093908;28;20115;-77
2023/12/24 10:47:58;;;;;;;0.80;0.80;;;11.00;99.90;;;;;;5093525;28;20051;-76
2023/12/24 10:50:24;;;;;;;0.80;0.80;;;11.00;99.90;;;;;;5093764;28;20133;-76
2023/12/24 10:52:49;;;;;;;0.80;0.80;;;11.00;99.90;;;;;;5093423;28;20032;-76
2023/12/24 10:55:16;;;;;;;0.80;0.80;;;11.00;99.90;;;;;;5093702;28;20474;-76
2023/12/24 10:58:00;;;;;;;0.80;0.80;;;11.00;99.90;;;;;;5093814;28;20441;-72
2023/12/24 11:00:27;;;;;;;0.80;0.80;;;11.00;99.90;;;;;;5093666;28;20040;-82
2023/12/24 11:02:53;;;;;;;0.70;0.70;;;11.00;99.90;;;;;;5094013;28;20092;-78
2023/12/24 11:05:46;;;;;;;0.80;0.80;;;11.00;99.90;;;;;;5093679;28;20464;-78
2023/12/24 11:08:21;;;;;;;0.73;0.73;;;11.10;99.90;;;;;;5093668;28;20040;-79
2023/12/24 11:10:54;;;;;;;0.80;0.80;;;11.90;99.90;;;;;;5093613;28;20446;-75
2023/12/24 11:13:31;;;;;;;0.77;0.77;;;11.10;99.90;;;;;;5093563;28;20048;-77
2023/12/24 11:16:03;;;;;;;0.70;0.70;;;11.10;99.90;;;;;;5093828;28;20109;-76
2023/12/24 11:18:48;;;;;;;0.70;0.70;;;11.20;99.90;;;;;;5094030;28;20048;-79
2023/12/24 11:21:19;;;;;;;0.70;0.70;;;11.20;99.90;;;;;;5093788;28;20093;-78
2023/12/24 11:24:11;;;;;;;0.80;0.80;;;11.20;99.90;;;;;;5093567;28;20040;-78
2023/12/24 11:26:36;;;;;;;0.80;0.80;;;11.30;99.90;;;;;;5093678;28;20086;-76
2023/12/24 11:29:40;;;;;;;0.70;0.70;;;11.50;99.90;;;;;;5093573;28;20476;-78
2023/12/24 11:32:24;;;;;;;0.77;0.77;;;11.30;99.90;;;;;;5095507;28;20044;-78
2023/12/24 11:34:50;;;;;;;0.70;0.70;;;11.30;99.90;;;;;;5097348;28;20486;-81
2023/12/24 11:37:26;;;;;;;0.70;0.70;;;11.10;99.90;;;;;;5096265;28;20071;-77
2023/12/24 11:40:04;;;;;;;0.80;0.80;;;11.30;99.90;;;;;;5097309;28;20044;-78
2023/12/24 11:42:42;;;;;;;;;;;11.30;99.90;;;;;;5096529;28;20048;-78
2023/12/24 11:45:16;;;;;;;0.70;0.70;;;11.40;99.90;;;;;;5096071;28;19920;-80
2023/12/24 11:47:42;;;;;;;0.80;0.80;;;11.30;99.90;;;;;;5096101;28;20407;-79
2023/12/24 11:50:10;;;;;;;0.70;0.70;;;11.30;99.90;;;;;;5096103;28;20074;-81
2023/12/24 11:52:41;;;;;;;0.70;0.70;;;11.30;99.90;;;;;;5095885;28;20375;-82
2023/12/24 11:55:07;;;;;;;0.70;0.70;;;11.30;99.90;;;;;;5096959;28;20048;-77
2023/12/24 11:57:32;;;;;;;0.70;0.70;;;11.40;99.90;;;;;;5095971;28;20380;-80
2023/12/24 11:59:59;;;;;;;0.70;0.70;;;11.40;99.90;;;;;;5079534;28;20032;-80
2023/12/24 12:02:25;;;;;;;0.80;0.80;;;11.40;99.90;;;;;;5095647;28;20460;-79
2023/12/24 12:04:50;;;;;;;0.90;0.90;;;11.40;99.90;;;;;;5095834;28;20169;-76
2023/12/24 12:07:16;;;;;;;0.77;0.77;;;11.40;99.90;;;;;;5096715;28;20094;-77
2023/12/24 12:09:41;;;;;;;0.70;0.70;;;11.40;99.90;;;;;;5096523;28;20452;-76
2023/12/24 12:12:07;;;;;;;0.93;0.93;;;11.40;99.90;;;;;;5096528;28;20117;-73
2023/12/24 12:14:33;;;;;;;0.70;0.70;;;11.40;99.90;;;;;;5097465;28;20028;-77
2023/12/24 12:16:58;;;;;;;0.70;0.70;;;11.50;99.90;;;;;;5096494;28;20329;-75
2023/12/24 12:19:24;;;;;;;0.70;0.70;;;11.40;99.90;;;;;;5096644;28;20051;-76
2023/12/24 12:21:49;;;;;;;0.70;0.70;;;11.40;99.90;;;;;;5096556;28;20043;-76
2023/12/24 12:24:15;;;;;;;0.98;0.98;;;11.20;99.90;;;;;;5095985;28;20124;-77
2023/12/24 12:26:40;;;;;;;0.70;0.70;;;11.40;99.90;;;;;;5095648;28;20474;-79
2023/12/24 12:29:06;;;;;;;0.65;0.65;;;11.50;99.90;;;;;;5094672;28;20043;-82
2023/12/24 12:31:32;;;;;;;0.60;0.60;;;11.50;99.90;;;;;;5096333;28;20040;-74
2023/12/24 12:33:57;;;;;;;0.70;0.70;;;11.50;99.90;;;;;;5077553;28;20579;-75
2023/12/24 12:36:23;;;;;;;0.80;0.80;;;11.50;99.90;;;;;;5095972;28;20063;-78
2023/12/24 12:38:48;;;;;;;0.70;0.70;;;11.50;99.90;;;;;;5096004;28;20081;-77
2023/12/24 12:41:14;;;;;;;2.72;2.53;;;11.50;99.90;;;;;;5096378;28;20051;-75
2023/12/24 12:43:40;;;;;;;0.70;0.70;;;11.60;99.90;;;;;;5095130;28;20492;-73
2023/12/24 12:46:06;;;;;;;0.60;0.60;;;11.50;99.90;;;;;;5095320;28;20418;-78
2023/12/24 12:48:31;;;;;;;0.70;0.70;;;11.50;99.90;;;;;;5095639;28;20098;-73
2023/12/24 12:50:57;;;;;;;0.70;0.70;;;11.50;99.90;;;;;;5095861;28;20079;-77